createdAt,value
2022-08-30T00:01:30.367Z,92.90
2022-08-30T00:03:59.177Z,92.90
2022-08-30T00:06:29.150Z,94.00
2022-08-30T00:08:59.793Z,93.50
2022-08-30T00:11:30.191Z,94.50
2022-08-30T00:13:58.567Z,94.80
2022-08-30T00:16:27.400Z,94.90
2022-08-30T00:18:57.705Z,96.50
2022-08-30T00:21:27.076Z,96.50
2022-08-30T00:23:55.254Z,96.00
2022-08-30T00:26:24.643Z,97.50
2022-08-30T00:28:52.655Z,96.80
2022-08-30T00:31:20.744Z,98.40
2022-08-30T00:33:48.808Z,99.90
2022-08-30T00:36:16.994Z,99.10
2022-08-30T00:38:45.049Z,97.60
2022-08-30T00:41:13.085Z,97.40
2022-08-30T00:43:42.936Z,95.90
2022-08-30T00:46:11.030Z,97.50
2022-08-30T00:48:43.343Z,96.90
2022-08-30T00:51:13.755Z,97.50
2022-08-30T00:53:45.273Z,98.50
2022-08-30T00:56:14.350Z,99.90
2022-08-30T00:58:49.201Z,99.90
2022-08-30T01:01:18.241Z,99.90
2022-08-30T01:03:46.741Z,98.30
2022-08-30T01:06:16.613Z,97.30
2022-08-30T01:08:45.359Z,95.70
2022-08-30T01:11:16.075Z,95.60
2022-08-30T01:13:47.061Z,95.10
2022-08-30T01:16:16.160Z,95.00
2022-08-30T01:18:45.508Z,96.10
2022-08-30T01:21:21.346Z,96.50
2022-08-30T01:23:54.700Z,96.20
2022-08-30T01:26:25.209Z,97.00
2022-08-30T01:28:57.757Z,97.10
2022-08-30T01:31:26.018Z,96.60
2022-08-30T01:33:54.097Z,97.50
2022-08-30T01:36:22.538Z,99.90
2022-08-30T01:38:55.626Z,99.90
2022-08-30T01:41:26.921Z,99.50
2022-08-30T01:43:56.999Z,99.90
2022-08-30T01:46:28.964Z,99.90
2022-08-30T01:48:58.728Z,99.90
2022-08-30T01:51:30.763Z,99.90
2022-08-30T01:54:00.807Z,99.90
2022-08-30T01:56:30.534Z,99.90
2022-08-30T01:59:02.840Z,99.90
2022-08-30T02:01:33.952Z,99.50
2022-08-30T02:04:02.373Z,98.60
2022-08-30T02:06:30.565Z,99.60
2022-08-30T02:09:00.364Z,99.10
2022-08-30T02:11:28.464Z,99.80
2022-08-30T02:13:56.813Z,98.50
2022-08-30T02:16:25.979Z,97.90
2022-08-30T02:18:56.163Z,97.70
2022-08-30T02:21:24.787Z,98.00
2022-08-30T02:23:53.303Z,99.40
2022-08-30T02:26:23.636Z,99.90
2022-08-30T02:28:52.608Z,99.90
2022-08-30T02:31:22.224Z,99.90
2022-08-30T02:33:52.180Z,99.90
2022-08-30T02:36:21.719Z,99.90
2022-08-30T02:38:50.008Z,99.90
2022-08-30T02:41:19.262Z,99.90
2022-08-30T02:43:48.745Z,99.90
2022-08-30T02:46:17.910Z,99.90
2022-08-30T02:48:46.061Z,99.70
2022-08-30T02:51:15.332Z,99.80
2022-08-30T02:53:45.123Z,99.40
2022-08-30T02:56:14.072Z,99.90
2022-08-30T02:58:42.899Z,99.90
2022-08-30T03:01:14.062Z,99.90
2022-08-30T03:03:43.089Z,99.90
2022-08-30T03:06:11.361Z,99.90
2022-08-30T03:08:39.537Z,99.90
2022-08-30T03:11:08.396Z,99.90
2022-08-30T03:13:36.436Z,99.90
2022-08-30T03:16:04.682Z,99.90
2022-08-30T03:18:34.666Z,99.90
2022-08-30T03:21:02.855Z,99.90
2022-08-30T03:23:31.490Z,99.90
2022-08-30T03:25:59.553Z,99.90
2022-08-30T03:28:27.604Z,99.90
2022-08-30T03:30:55.891Z,99.90
2022-08-30T03:33:23.945Z,99.90
2022-08-30T03:35:54.025Z,99.90
2022-08-30T03:38:22.328Z,99.90
2022-08-30T03:40:50.376Z,99.90
2022-08-30T03:43:18.920Z,99.70
2022-08-30T03:45:47.153Z,99.80
2022-08-30T03:48:15.262Z,99.90
2022-08-30T03:50:43.295Z,99.90
2022-08-30T03:53:13.015Z,99.90
2022-08-30T03:55:41.107Z,99.90
2022-08-30T03:58:09.219Z,99.90
2022-08-30T04:00:37.418Z,99.90
2022-08-30T04:03:05.576Z,99.90
2022-08-30T04:05:33.788Z,99.90
2022-08-30T04:08:01.817Z,99.90
2022-08-30T04:10:31.794Z,99.90
2022-08-30T04:12:59.600Z,99.90
2022-08-30T04:15:27.641Z,99.90
2022-08-30T04:17:55.739Z,99.90
2022-08-30T04:20:23.788Z,99.90
2022-08-30T04:22:54.372Z,99.90
2022-08-30T04:25:23.589Z,99.90
2022-08-30T04:27:53.067Z,99.90
2022-08-30T04:30:22.201Z,99.90
2022-08-30T04:32:50.288Z,99.90
2022-08-30T04:35:18.369Z,99.90
2022-08-30T04:37:46.420Z,99.90
2022-08-30T04:40:15.134Z,99.90
2022-08-30T04:42:44.397Z,99.90
2022-08-30T04:45:16.290Z,99.90
2022-08-30T04:47:45.095Z,99.90
2022-08-30T04:50:15.916Z,99.90
2022-08-30T04:52:44.267Z,99.90
2022-08-30T04:55:16.748Z,99.90
2022-08-30T04:57:47.462Z,99.90
2022-08-30T05:00:17.836Z,99.90
2022-08-30T05:02:45.965Z,99.90
2022-08-30T05:05:32.048Z,99.90
2022-08-30T05:08:00.310Z,99.90
2022-08-30T05:10:28.698Z,99.90
2022-08-30T05:12:56.748Z,99.90
2022-08-30T05:15:26.175Z,99.90
2022-08-30T05:17:54.187Z,99.90
2022-08-30T05:20:22.327Z,99.90
2022-08-30T05:22:53.664Z,99.90
2022-08-30T05:25:24.489Z,99.90
2022-08-30T05:27:53.285Z,99.90
2022-08-30T05:30:22.216Z,99.90
2022-08-30T05:32:51.931Z,99.90
2022-08-30T05:35:25.614Z,99.90
2022-08-30T05:37:56.123Z,99.90
2022-08-30T05:40:24.208Z,99.90
2022-08-30T05:42:52.803Z,99.90
2022-08-30T05:45:20.978Z,99.80
2022-08-30T05:47:49.126Z,98.00
2022-08-30T05:50:19.132Z,97.40
2022-08-30T05:52:48.803Z,97.40
2022-08-30T05:55:18.905Z,96.50
2022-08-30T05:57:46.928Z,96.20
2022-08-30T06:00:18.929Z,95.10
2022-08-30T06:02:47.096Z,96.20
2022-08-30T06:05:15.584Z,95.40
2022-08-30T06:07:45.164Z,95.30
2022-08-30T06:10:13.357Z,94.80
2022-08-30T06:12:43.217Z,93.00
2022-08-30T06:15:12.440Z,91.20
2022-08-30T06:17:40.485Z,92.00
2022-08-30T06:20:10.093Z,90.10
2022-08-30T06:22:38.671Z,87.70
2022-08-30T06:25:09.412Z,85.60
2022-08-30T06:27:37.485Z,83.40
2022-08-30T06:30:08.209Z,73.70
2022-08-30T06:32:36.329Z,71.60
2022-08-30T06:35:04.978Z,73.70
2022-08-30T06:37:33.758Z,63.30
2022-08-30T06:40:03.341Z,60.90
2022-08-30T06:42:34.412Z,57.80
2022-08-30T06:45:11.076Z,57.00
2022-08-30T06:47:40.801Z,51.50
2022-08-30T06:50:11.796Z,44.70
2022-08-30T06:52:41.359Z,44.20
2022-08-30T06:55:11.181Z,51.20
2022-08-30T06:57:40.584Z,52.70
2022-08-30T07:00:12.042Z,53.70
2022-08-30T07:02:40.617Z,55.40
2022-08-30T07:05:13.243Z,54.20
2022-08-30T07:07:44.778Z,42.10
2022-08-30T07:10:14.307Z,37.30
2022-08-30T07:12:43.706Z,33.30
2022-08-30T07:15:12.225Z,40.60
2022-08-30T07:17:58.345Z,27.40
2022-08-30T07:20:26.369Z,20.10
2022-08-30T07:22:54.390Z,12.60
2022-08-30T07:25:22.452Z,12.80
2022-08-30T07:27:52.817Z,1.30
2022-08-30T07:30:20.969Z,5.20
2022-08-30T07:32:49.206Z,1.00
2022-08-30T07:35:17.471Z,1.00
2022-08-30T07:37:45.488Z,1.00
2022-08-30T07:40:14.103Z,1.00
2022-08-30T07:42:42.175Z,1.00
2022-08-30T07:45:12.603Z,1.00
2022-08-30T07:47:42.136Z,1.00
2022-08-30T07:50:10.784Z,1.00
2022-08-30T07:52:38.910Z,1.00
2022-08-30T07:55:08.028Z,1.00
2022-08-30T07:57:36.078Z,1.00
2022-08-30T08:00:05.665Z,1.00
2022-08-30T08:02:36.785Z,1.00
2022-08-30T08:05:05.489Z,1.00
2022-08-30T08:07:33.557Z,1.00
2022-08-30T08:10:01.781Z,1.00
2022-08-30T08:12:30.001Z,1.00
2022-08-30T08:14:58.129Z,1.00
2022-08-30T08:17:26.169Z,1.00
2022-08-30T08:19:55.591Z,1.00
2022-08-30T08:22:23.625Z,1.00
2022-08-30T08:24:51.983Z,1.00
2022-08-30T08:27:20.040Z,1.00
2022-08-30T08:29:48.105Z,1.00
2022-08-30T08:32:16.139Z,1.00
2022-08-30T08:34:44.364Z,1.00
2022-08-30T08:37:13.732Z,18.50
2022-08-30T08:39:41.740Z,2.20
2022-08-30T08:42:17.509Z,67.60
2022-08-30T08:44:55.835Z,76.80
2022-08-30T08:47:31.001Z,78.10
2022-08-30T08:50:04.013Z,83.50
2022-08-30T08:53:04.331Z,80.20
2022-08-30T08:55:33.301Z,83.00
2022-08-30T08:58:02.415Z,83.00
2022-08-30T09:00:30.768Z,83.90
2022-08-30T09:05:32.499Z,82.10
2022-08-30T09:08:07.763Z,83.40
2022-08-30T09:10:54.690Z,79.90
2022-08-30T09:13:23.159Z,84.10
2022-08-30T09:15:54.727Z,80.70
2022-08-30T09:18:45.447Z,80.90
2022-08-30T09:21:14.639Z,79.60
2022-08-30T09:23:51.816Z,79.00
2022-08-30T09:26:30.739Z,82.30
2022-08-30T09:29:00.001Z,80.80
2022-08-30T09:31:30.705Z,78.40
2022-08-30T09:34:03.754Z,75.40
2022-08-30T09:36:35.780Z,78.00
2022-08-30T09:39:07.994Z,79.40
2022-08-30T09:41:41.213Z,79.10
2022-08-30T09:44:12.152Z,78.00
2022-08-30T09:46:47.370Z,75.40
2022-08-30T09:49:33.919Z,73.50
2022-08-30T09:52:18.089Z,72.00
2022-08-30T09:55:04.285Z,73.30
2022-08-30T09:57:42.393Z,72.20
2022-08-30T10:00:16.496Z,74.60
2022-08-30T10:03:26.145Z,70.30
2022-08-30T10:06:07.018Z,74.90
2022-08-30T10:08:52.172Z,69.00
2022-08-30T10:11:29.247Z,76.00
2022-08-30T10:14:19.732Z,74.40
2022-08-30T10:16:55.401Z,69.80
2022-08-30T10:19:37.188Z,71.80
2022-08-30T10:22:10.847Z,71.50
2022-08-30T10:24:43.988Z,71.30
2022-08-30T10:27:19.464Z,67.70
2022-08-30T10:29:52.222Z,66.80
2022-08-30T10:32:26.781Z,69.10
2022-08-30T10:34:58.619Z,65.60
2022-08-30T10:37:29.572Z,63.40
2022-08-30T10:40:22.826Z,61.00
2022-08-30T10:42:57.664Z,65.30
2022-08-30T10:45:28.233Z,61.00
2022-08-30T10:48:01.412Z,61.60
2022-08-30T10:50:39.037Z,58.00
2022-08-30T10:53:15.358Z,54.30
2022-08-30T10:55:50.301Z,56.10
2022-08-30T10:58:20.544Z,56.10
2022-08-30T11:01:01.128Z,60.50
2022-08-30T11:04:14.354Z,58.70
2022-08-30T11:06:53.820Z,57.10
2022-08-30T11:09:40.687Z,59.50
2022-08-30T11:12:25.525Z,58.00
2022-08-30T11:14:56.351Z,61.60
2022-08-30T11:17:31.824Z,59.40
2022-08-30T11:20:03.284Z,60.40
2022-08-30T11:25:53.496Z,55.80
2022-08-30T11:29:01.398Z,56.40
2022-08-30T11:31:41.705Z,58.50
2022-08-30T11:34:11.648Z,57.60
2022-08-30T11:40:02.077Z,55.10
2022-08-30T11:42:44.703Z,56.90
2022-08-30T11:45:52.185Z,50.60
2022-08-30T11:48:53.522Z,51.00
2022-08-30T11:52:08.336Z,56.00
2022-08-30T11:54:53.023Z,54.10
2022-08-30T11:57:31.160Z,53.40
2022-08-30T12:00:06.679Z,50.00
2022-08-30T12:02:50.191Z,50.60
2022-08-30T12:06:01.178Z,52.10
2022-08-30T12:08:55.118Z,51.80
2022-08-30T12:12:02.316Z,46.20
2022-08-30T12:14:49.263Z,48.90
2022-08-30T12:17:42.384Z,51.30
2022-08-30T12:20:22.876Z,54.60
2022-08-30T12:22:51.921Z,49.30
2022-08-30T12:25:29.995Z,52.30
2022-08-30T12:28:18.214Z,51.40
2022-08-30T12:30:46.864Z,52.00
2022-08-30T12:33:24.181Z,46.10
2022-08-30T12:35:59.324Z,48.50
2022-08-30T12:38:28.261Z,49.40
2022-08-30T12:41:00.778Z,48.10
2022-08-30T12:43:40.530Z,47.20
2022-08-30T12:46:15.286Z,47.00
2022-08-30T12:48:44.244Z,46.70
2022-08-30T12:51:28.520Z,45.20
2022-08-30T12:54:05.929Z,46.50
2022-08-30T12:56:53.838Z,44.50
2022-08-30T12:59:52.978Z,42.40
2022-08-30T13:02:25.614Z,46.80
2022-08-30T13:04:55.940Z,48.00
2022-08-30T13:07:33.396Z,45.70
2022-08-30T13:10:11.928Z,44.10
2022-08-30T13:12:41.533Z,45.10
2022-08-30T13:15:28.517Z,45.60
2022-08-30T13:18:12.229Z,48.00
2022-08-30T13:20:40.352Z,48.10
2022-08-30T13:23:10.152Z,50.00
2022-08-30T13:25:39.780Z,46.90
2022-08-30T13:28:09.657Z,49.10
2022-08-30T13:30:38.860Z,44.90
2022-08-30T13:33:06.881Z,47.10
2022-08-30T13:35:34.931Z,45.30
2022-08-30T13:38:04.299Z,50.60
2022-08-30T13:40:32.509Z,51.30
2022-08-30T13:43:00.641Z,46.50
2022-08-30T13:45:45.472Z,46.10
2022-08-30T13:48:15.293Z,44.10
2022-08-30T13:50:45.555Z,43.30
2022-08-30T13:53:13.716Z,45.00
2022-08-30T13:55:42.556Z,44.40
2022-08-30T13:58:13.658Z,47.20
2022-08-30T14:00:43.694Z,44.50
2022-08-30T14:03:11.780Z,48.60
2022-08-30T14:05:50.535Z,44.80
2022-08-30T14:11:19.166Z,44.10
2022-08-30T14:16:40.094Z,41.40
2022-08-30T14:19:10.223Z,45.50
2022-08-30T14:21:39.132Z,46.90
2022-08-30T14:24:07.409Z,45.40
2022-08-30T14:26:37.578Z,43.50
2022-08-30T14:29:09.023Z,42.00
2022-08-30T14:31:39.601Z,44.80
2022-08-30T14:34:09.474Z,46.60
2022-08-30T14:36:42.184Z,42.90
2022-08-30T14:39:15.026Z,46.70
2022-08-30T14:41:44.983Z,47.20
2022-08-30T14:44:13.622Z,45.40
2022-08-30T14:46:43.268Z,45.80
2022-08-30T14:49:12.128Z,46.30
2022-08-30T14:51:40.760Z,48.50
2022-08-30T14:54:09.486Z,48.30
2022-08-30T14:56:39.447Z,51.10
2022-08-30T14:59:08.244Z,52.10
2022-08-30T15:01:38.579Z,49.80
2022-08-30T15:04:09.107Z,50.90
2022-08-30T15:06:38.020Z,51.60
2022-08-30T15:09:07.707Z,50.80
2022-08-30T15:11:35.995Z,53.50
2022-08-30T15:14:04.107Z,52.50
2022-08-30T15:16:34.848Z,54.90
2022-08-30T15:19:04.500Z,53.30
2022-08-30T15:21:35.283Z,52.00
2022-08-30T15:24:05.281Z,50.50
2022-08-30T15:26:34.187Z,50.80
2022-08-30T15:29:02.688Z,50.80
2022-08-30T15:31:32.228Z,50.70
2022-08-30T15:34:01.084Z,53.20
2022-08-30T15:36:30.399Z,53.30
2022-08-30T15:39:00.554Z,53.30
2022-08-30T15:41:29.866Z,52.90
2022-08-30T15:43:59.948Z,53.80
2022-08-30T15:46:31.982Z,53.40
2022-08-30T15:49:02.097Z,54.40
2022-08-30T15:51:41.664Z,53.90
2022-08-30T15:54:12.126Z,55.00
2022-08-30T15:56:41.870Z,54.80
2022-08-30T15:59:10.725Z,55.70
2022-08-30T16:01:39.267Z,56.10
2022-08-30T16:04:07.414Z,56.10
2022-08-30T16:06:38.038Z,56.60
2022-08-30T16:09:07.181Z,58.80
2022-08-30T16:11:36.797Z,56.80
2022-08-30T16:14:07.075Z,57.30
2022-08-30T16:16:37.500Z,56.70
2022-08-30T16:19:06.151Z,57.20
2022-08-30T16:21:36.757Z,58.20
2022-08-30T16:24:06.911Z,58.50
2022-08-30T16:26:38.215Z,58.90
2022-08-30T16:29:08.899Z,59.10
2022-08-30T16:31:38.321Z,58.70
2022-08-30T16:34:07.486Z,59.80
2022-08-30T16:36:37.105Z,60.10
2022-08-30T16:39:08.465Z,62.00
2022-08-30T16:41:38.593Z,61.40
2022-08-30T16:44:07.380Z,63.60
2022-08-30T16:46:37.689Z,62.70
2022-08-30T16:49:06.173Z,64.60
2022-08-30T16:51:38.408Z,63.40
2022-08-30T16:54:08.405Z,64.10
2022-08-30T16:56:38.928Z,65.20
2022-08-30T16:59:11.161Z,65.30
2022-08-30T17:01:42.189Z,65.30
2022-08-30T17:04:15.916Z,66.70
2022-08-30T17:06:46.724Z,72.40
2022-08-30T17:09:15.123Z,68.40
2022-08-30T17:11:44.670Z,70.40
2022-08-30T17:14:13.154Z,71.20
2022-08-30T17:16:42.524Z,72.50
2022-08-30T17:19:13.522Z,73.00
2022-08-30T17:21:41.580Z,76.00
2022-08-30T17:24:09.687Z,77.50
2022-08-30T17:26:40.021Z,79.40
2022-08-30T17:29:09.509Z,76.20
2022-08-30T17:31:41.593Z,76.30
2022-08-30T17:34:09.688Z,79.20
2022-08-30T17:36:39.844Z,79.80
2022-08-30T17:39:11.835Z,1.00
2022-08-30T17:41:45.143Z,1.00
2022-08-30T17:44:20.568Z,1.00
2022-08-30T17:46:48.743Z,1.00
2022-08-30T17:49:17.656Z,1.00
2022-08-30T17:51:47.748Z,1.00
2022-08-30T17:54:16.631Z,1.00
2022-08-30T17:56:46.094Z,1.00
2022-08-30T17:59:15.846Z,1.00
2022-08-30T18:01:46.277Z,1.00
2022-08-30T18:04:19.644Z,1.00
2022-08-30T18:06:48.758Z,1.00
2022-08-30T18:09:17.742Z,1.00
2022-08-30T18:11:46.054Z,1.00
2022-08-30T18:14:16.968Z,1.00
2022-08-30T18:16:47.477Z,1.00
2022-08-30T18:19:21.695Z,1.00
2022-08-30T18:21:49.897Z,1.00
2022-08-30T18:24:18.021Z,1.00
2022-08-30T18:26:46.607Z,1.00
2022-08-30T18:29:14.796Z,1.00
2022-08-30T18:31:55.856Z,1.00
2022-08-30T18:34:24.382Z,1.00
2022-08-30T18:36:52.403Z,1.00
2022-08-30T18:39:21.848Z,1.00
2022-08-30T18:41:50.958Z,1.00
2022-08-30T18:44:29.632Z,1.00
2022-08-30T18:47:05.612Z,1.00
2022-08-30T18:49:35.607Z,1.00
2022-08-30T18:52:06.828Z,1.00
2022-08-30T18:54:38.804Z,1.00
2022-08-30T18:57:08.457Z,1.00
2022-08-30T18:59:38.136Z,1.00
2022-08-30T19:04:56.892Z,1.00
2022-08-30T19:07:29.895Z,1.00
2022-08-30T19:10:02.773Z,1.00
2022-08-30T19:12:31.381Z,1.00
2022-08-30T19:15:00.083Z,1.00
2022-08-30T19:17:29.517Z,1.00
2022-08-30T19:19:57.396Z,1.00
2022-08-30T19:25:15.525Z,1.00
2022-08-30T19:27:43.639Z,1.00
2022-08-30T19:30:20.037Z,1.00
2022-08-30T19:32:52.101Z,1.00
2022-08-30T19:35:21.259Z,1.00
2022-08-30T19:37:49.316Z,1.00
2022-08-30T19:40:19.481Z,1.00
2022-08-30T19:42:49.547Z,1.00
2022-08-30T19:45:21.587Z,1.00
2022-08-30T19:47:53.161Z,1.00
2022-08-30T19:50:22.442Z,1.00
2022-08-30T19:52:54.717Z,1.00
2022-08-30T19:55:28.347Z,1.00
2022-08-30T19:57:58.038Z,1.00
2022-08-30T20:00:26.424Z,1.00
2022-08-30T20:02:55.845Z,1.00
2022-08-30T20:05:24.271Z,1.00
2022-08-30T20:07:52.325Z,1.00
2022-08-30T20:10:20.876Z,1.00
2022-08-30T20:12:54.629Z,1.00
2022-08-30T20:15:23.159Z,1.00
2022-08-30T20:18:05.192Z,1.00
2022-08-30T20:20:36.981Z,1.00
2022-08-30T20:23:06.057Z,1.00
2022-08-30T20:24:30.091Z,1.00
2022-08-30T20:24:33.251Z,1.00
2022-08-30T20:25:34.505Z,1.00
2022-08-30T20:28:03.556Z,1.00
2022-08-30T20:30:32.216Z,1.00
2022-08-30T20:33:04.942Z,1.00
2022-08-30T20:35:36.495Z,1.00
2022-08-30T20:38:06.449Z,1.00
2022-08-30T20:40:36.009Z,1.00
2022-08-30T20:43:04.964Z,1.00
2022-08-30T20:45:34.991Z,1.00
2022-08-30T20:48:03.234Z,1.00
2022-08-30T20:50:31.290Z,1.00
2022-08-30T20:53:00.704Z,1.00
2022-08-30T20:55:28.849Z,1.00
2022-08-30T20:57:56.940Z,1.00
2022-08-30T21:00:27.381Z,1.00
2022-08-30T21:02:55.510Z,1.00
2022-08-30T21:05:23.820Z,1.00
2022-08-30T21:07:51.946Z,1.00
2022-08-30T21:10:23.479Z,1.00
2022-08-30T21:12:51.809Z,1.00
2022-08-30T21:15:36.721Z,1.00
2022-08-30T21:18:06.350Z,1.00
2022-08-30T21:20:34.437Z,1.00
2022-08-30T21:23:02.477Z,1.00
2022-08-30T21:25:33.972Z,1.00
2022-08-30T21:28:03.961Z,1.00
2022-08-30T21:30:32.055Z,1.00
2022-08-30T21:33:00.700Z,1.00
2022-08-30T21:35:46.519Z,1.00
2022-08-30T21:38:14.654Z,1.00
2022-08-30T21:40:44.346Z,1.20
2022-08-30T21:43:12.751Z,1.00
2022-08-30T21:45:41.507Z,4.20
2022-08-30T21:48:10.935Z,3.20
2022-08-30T21:50:39.960Z,1.00
2022-08-30T21:53:08.080Z,2.00
2022-08-30T21:55:36.477Z,3.40
2022-08-30T21:58:05.976Z,1.40
2022-08-30T22:00:33.900Z,2.50
2022-08-30T22:03:02.253Z,14.90
2022-08-30T22:05:30.441Z,6.50
2022-08-30T22:07:58.505Z,4.50
2022-08-30T22:10:31.139Z,7.70
2022-08-30T22:13:01.316Z,11.70
2022-08-30T22:15:32.664Z,11.90
2022-08-30T22:18:00.771Z,9.40
2022-08-30T22:20:30.348Z,5.20
2022-08-30T22:22:59.147Z,7.20
2022-08-30T22:25:27.606Z,6.40
2022-08-30T22:27:55.752Z,6.50
2022-08-30T22:30:23.792Z,5.50
2022-08-30T22:32:53.147Z,18.60
2022-08-30T22:35:23.052Z,15.40
2022-08-30T22:37:53.261Z,15.60
2022-08-30T22:40:22.409Z,14.70
2022-08-30T22:42:50.480Z,21.80
2022-08-30T22:45:18.827Z,22.00
2022-08-30T22:47:47.860Z,23.50
2022-08-30T22:50:17.453Z,25.60
2022-08-30T22:52:45.324Z,24.40
2022-08-30T22:55:13.452Z,35.60
2022-08-30T22:57:41.976Z,27.10
2022-08-30T23:00:15.155Z,25.60
2022-08-30T23:02:44.614Z,24.30
2022-08-30T23:05:13.608Z,26.20
2022-08-30T23:07:43.350Z,31.40
2022-08-30T23:10:13.039Z,32.20
2022-08-30T23:12:41.469Z,30.90
2022-08-30T23:15:13.009Z,35.80
2022-08-30T23:17:41.373Z,31.70
2022-08-30T23:20:11.809Z,39.90
2022-08-30T23:22:39.966Z,37.10
2022-08-30T23:25:28.612Z,37.50
2022-08-30T23:28:19.120Z,42.40
2022-08-30T23:31:06.764Z,42.30
2022-08-30T23:33:52.272Z,36.90
2022-08-30T23:36:37.674Z,32.00
2022-08-30T23:39:23.508Z,37.40
2022-08-30T23:42:10.444Z,30.10
2022-08-30T23:44:55.985Z,35.00
2022-08-30T23:47:41.512Z,31.30
2022-08-30T23:50:27.503Z,36.30
2022-08-30T23:53:13.044Z,36.50
2022-08-30T23:55:59.356Z,42.00
2022-08-30T23:58:46.607Z,45.30
